sensor_id;sensor_type;location;lat;lon;timestamp;P1;durP1;ratioP1;P2;durP2;ratioP2
5587;SDS011;2816;49.778;9.986;2022-07-03T00:01:33;4.70;;;1.90;;
5587;SDS011;2816;49.778;9.986;2022-07-03T00:04:00;1.80;;;1.70;;
5587;SDS011;2816;49.778;9.986;2022-07-03T00:06:28;8.10;;;2.20;;
5587;SDS011;2816;49.778;9.986;2022-07-03T00:08:57;1.77;;;1.57;;
5587;SDS011;2816;49.778;9.986;2022-07-03T00:11:24;3.67;;;1.70;;
5587;SDS011;2816;49.778;9.986;2022-07-03T00:13:51;1.50;;;1.40;;
5587;SDS011;2816;49.778;9.986;2022-07-03T00:16:18;3.20;;;1.60;;
5587;SDS011;2816;49.778;9.986;2022-07-03T00:18:45;2.80;;;1.70;;
5587;SDS011;2816;49.778;9.986;2022-07-03T00:21:15;2.60;;;1.73;;
5587;SDS011;2816;49.778;9.986;2022-07-03T00:23:50;2.30;;;1.70;;
5587;SDS011;2816;49.778;9.986;2022-07-03T00:26:20;4.30;;;1.70;;
5587;SDS011;2816;49.778;9.986;2022-07-03T00:28:47;2.23;;;1.67;;
5587;SDS011;2816;49.778;9.986;2022-07-03T00:31:15;1.70;;;1.60;;
5587;SDS011;2816;49.778;9.986;2022-07-03T00:33:42;2.57;;;1.57;;
5587;SDS011;2816;49.778;9.986;2022-07-03T00:36:11;2.00;;;1.80;;
5587;SDS011;2816;49.778;9.986;2022-07-03T00:38:38;2.40;;;2.00;;
5587;SDS011;2816;49.778;9.986;2022-07-03T00:41:07;1.90;;;1.80;;
5587;SDS011;2816;49.778;9.986;2022-07-03T00:43:49;3.57;;;1.60;;
5587;SDS011;2816;49.778;9.986;2022-07-03T00:46:16;3.33;;;2.13;;
5587;SDS011;2816;49.778;9.986;2022-07-03T00:48:47;1.87;;;1.77;;
5587;SDS011;2816;49.778;9.986;2022-07-03T00:51:17;2.07;;;1.87;;
5587;SDS011;2816;49.778;9.986;2022-07-03T00:53:47;2.50;;;1.90;;
5587;SDS011;2816;49.778;9.986;2022-07-03T00:56:18;2.00;;;1.80;;
5587;SDS011;2816;49.778;9.986;2022-07-03T00:58:49;3.07;;;1.50;;
5587;SDS011;2816;49.778;9.986;2022-07-03T01:01:19;1.90;;;1.80;;
5587;SDS011;2816;49.778;9.986;2022-07-03T01:03:46;2.47;;;1.93;;
5587;SDS011;2816;49.778;9.986;2022-07-03T01:06:19;1.83;;;1.50;;
5587;SDS011;2816;49.778;9.986;2022-07-03T01:08:49;1.67;;;1.57;;
5587;SDS011;2816;49.778;9.986;2022-07-03T01:11:21;2.37;;;1.80;;
5587;SDS011;2816;49.778;9.986;2022-07-03T01:14:04;2.30;;;1.70;;
5587;SDS011;2816;49.778;9.986;2022-07-03T01:16:51;2.27;;;2.00;;
5587;SDS011;2816;49.778;9.986;2022-07-03T01:19:34;5.80;;;1.90;;
5587;SDS011;2816;49.778;9.986;2022-07-03T01:22:09;2.00;;;1.60;;
5587;SDS011;2816;49.778;9.986;2022-07-03T01:24:56;4.00;;;1.73;;
5587;SDS011;2816;49.778;9.986;2022-07-03T01:27:41;3.07;;;1.77;;
5587;SDS011;2816;49.778;9.986;2022-07-03T01:30:27;7.60;;;1.77;;
5587;SDS011;2816;49.778;9.986;2022-07-03T01:32:57;2.20;;;2.00;;
5587;SDS011;2816;49.778;9.986;2022-07-03T01:35:28;2.40;;;1.80;;
5587;SDS011;2816;49.778;9.986;2022-07-03T01:38:01;2.60;;;1.83;;
5587;SDS011;2816;49.778;9.986;2022-07-03T01:40:31;4.43;;;2.03;;
5587;SDS011;2816;49.778;9.986;2022-07-03T01:43:00;3.70;;;1.63;;
5587;SDS011;2816;49.778;9.986;2022-07-03T01:45:29;1.83;;;1.73;;
5587;SDS011;2816;49.778;9.986;2022-07-03T01:47:58;1.80;;;1.70;;
5587;SDS011;2816;49.778;9.986;2022-07-03T01:50:26;7.57;;;2.20;;
5587;SDS011;2816;49.778;9.986;2022-07-03T01:52:55;2.80;;;1.80;;
5587;SDS011;2816;49.778;9.986;2022-07-03T01:55:23;1.70;;;1.60;;
5587;SDS011;2816;49.778;9.986;2022-07-03T01:57:51;2.07;;;1.90;;
5587;SDS011;2816;49.778;9.986;2022-07-03T02:00:20;6.23;;;1.90;;
5587;SDS011;2816;49.778;9.986;2022-07-03T02:02:50;2.10;;;1.90;;
5587;SDS011;2816;49.778;9.986;2022-07-03T02:05:27;2.10;;;2.00;;
5587;SDS011;2816;49.778;9.986;2022-07-03T02:07:58;2.67;;;1.90;;
5587;SDS011;2816;49.778;9.986;2022-07-03T02:10:33;1.97;;;1.80;;
5587;SDS011;2816;49.778;9.986;2022-07-03T02:13:06;4.30;;;1.50;;
5587;SDS011;2816;49.778;9.986;2022-07-03T02:15:42;4.20;;;1.87;;
5587;SDS011;2816;49.778;9.986;2022-07-03T02:18:11;1.90;;;1.80;;
5587;SDS011;2816;49.778;9.986;2022-07-03T02:20:50;2.40;;;2.20;;
5587;SDS011;2816;49.778;9.986;2022-07-03T02:23:28;2.70;;;1.90;;
5587;SDS011;2816;49.778;9.986;2022-07-03T02:26:00;2.80;;;2.30;;
5587;SDS011;2816;49.778;9.986;2022-07-03T02:28:32;3.50;;;1.83;;
5587;SDS011;2816;49.778;9.986;2022-07-03T02:31:08;6.80;;;1.93;;
5587;SDS011;2816;49.778;9.986;2022-07-03T02:33:40;10.90;;;1.90;;
5587;SDS011;2816;49.778;9.986;2022-07-03T02:36:10;2.63;;;1.90;;
5587;SDS011;2816;49.778;9.986;2022-07-03T02:38:37;2.23;;;1.77;;
5587;SDS011;2816;49.778;9.986;2022-07-03T02:41:13;3.30;;;1.90;;
5587;SDS011;2816;49.778;9.986;2022-07-03T02:43:47;1.83;;;1.73;;
5587;SDS011;2816;49.778;9.986;2022-07-03T02:46:24;2.33;;;1.83;;
5587;SDS011;2816;49.778;9.986;2022-07-03T02:49:18;1.73;;;1.63;;
5587;SDS011;2816;49.778;9.986;2022-07-03T02:51:57;1.90;;;1.67;;
5587;SDS011;2816;49.778;9.986;2022-07-03T02:54:38;2.20;;;1.70;;
5587;SDS011;2816;49.778;9.986;2022-07-03T02:57:08;2.20;;;2.00;;
5587;SDS011;2816;49.778;9.986;2022-07-03T02:59:39;2.27;;;2.10;;
5587;SDS011;2816;49.778;9.986;2022-07-03T03:02:23;3.30;;;1.83;;
5587;SDS011;2816;49.778;9.986;2022-07-03T03:05:02;2.00;;;1.90;;
5587;SDS011;2816;49.778;9.986;2022-07-03T03:07:35;3.53;;;1.90;;
5587;SDS011;2816;49.778;9.986;2022-07-03T03:10:09;2.20;;;1.93;;
5587;SDS011;2816;49.778;9.986;2022-07-03T03:12:41;5.23;;;2.03;;
5587;SDS011;2816;49.778;9.986;2022-07-03T03:15:12;2.60;;;2.10;;
5587;SDS011;2816;49.778;9.986;2022-07-03T03:17:41;2.07;;;1.80;;
5587;SDS011;2816;49.778;9.986;2022-07-03T03:20:11;2.40;;;1.83;;
5587;SDS011;2816;49.778;9.986;2022-07-03T03:22:48;1.87;;;1.77;;
5587;SDS011;2816;49.778;9.986;2022-07-03T03:25:25;3.07;;;2.00;;
5587;SDS011;2816;49.778;9.986;2022-07-03T03:27:52;3.63;;;2.00;;
5587;SDS011;2816;49.778;9.986;2022-07-03T03:30:20;2.50;;;2.23;;
5587;SDS011;2816;49.778;9.986;2022-07-03T03:32:48;2.20;;;2.00;;
5587;SDS011;2816;49.778;9.986;2022-07-03T03:35:15;2.17;;;1.90;;
5587;SDS011;2816;49.778;9.986;2022-07-03T03:37:43;4.50;;;1.80;;
5587;SDS011;2816;49.778;9.986;2022-07-03T03:40:13;3.00;;;2.10;;
5587;SDS011;2816;49.778;9.986;2022-07-03T03:42:42;2.00;;;1.80;;
5587;SDS011;2816;49.778;9.986;2022-07-03T03:45:09;3.20;;;1.80;;
5587;SDS011;2816;49.778;9.986;2022-07-03T03:47:36;3.93;;;2.10;;
5587;SDS011;2816;49.778;9.986;2022-07-03T03:50:06;4.17;;;2.00;;
5587;SDS011;2816;49.778;9.986;2022-07-03T03:52:33;2.20;;;2.00;;
5587;SDS011;2816;49.778;9.986;2022-07-03T03:55:00;2.50;;;1.97;;
5587;SDS011;2816;49.778;9.986;2022-07-03T03:57:27;2.07;;;1.87;;
5587;SDS011;2816;49.778;9.986;2022-07-03T03:59:54;3.20;;;2.27;;
5587;SDS011;2816;49.778;9.986;2022-07-03T04:02:22;3.30;;;2.00;;
5587;SDS011;2816;49.778;9.986;2022-07-03T04:04:49;2.30;;;1.97;;
5587;SDS011;2816;49.778;9.986;2022-07-03T04:07:18;2.80;;;2.07;;
5587;SDS011;2816;49.778;9.986;2022-07-03T04:09:45;1.93;;;1.73;;
5587;SDS011;2816;49.778;9.986;2022-07-03T04:12:12;3.10;;;2.03;;
5587;SDS011;2816;49.778;9.986;2022-07-03T04:14:40;2.30;;;1.90;;
5587;SDS011;2816;49.778;9.986;2022-07-03T04:17:07;1.90;;;1.80;;
5587;SDS011;2816;49.778;9.986;2022-07-03T04:19:34;1.83;;;1.73;;
5587;SDS011;2816;49.778;9.986;2022-07-03T04:22:01;2.37;;;2.17;;
5587;SDS011;2816;49.778;9.986;2022-07-03T04:24:34;2.87;;;1.93;;
5587;SDS011;2816;49.778;9.986;2022-07-03T04:27:01;10.90;;;2.50;;
5587;SDS011;2816;49.778;9.986;2022-07-03T04:29:29;4.07;;;2.10;;
5587;SDS011;2816;49.778;9.986;2022-07-03T04:31:56;6.20;;;2.13;;
5587;SDS011;2816;49.778;9.986;2022-07-03T04:34:23;3.53;;;1.63;;
5587;SDS011;2816;49.778;9.986;2022-07-03T04:36:50;2.00;;;1.90;;
5587;SDS011;2816;49.778;9.986;2022-07-03T04:39:17;2.30;;;2.10;;
5587;SDS011;2816;49.778;9.986;2022-07-03T04:41:45;3.33;;;2.10;;
5587;SDS011;2816;49.778;9.986;2022-07-03T04:44:12;2.20;;;2.00;;
5587;SDS011;2816;49.778;9.986;2022-07-03T04:46:39;2.30;;;2.10;;
5587;SDS011;2816;49.778;9.986;2022-07-03T04:49:06;3.97;;;2.13;;
5587;SDS011;2816;49.778;9.986;2022-07-03T04:51:33;2.37;;;1.90;;
5587;SDS011;2816;49.778;9.986;2022-07-03T04:54:00;2.60;;;2.10;;
5587;SDS011;2816;49.778;9.986;2022-07-03T04:56:27;2.27;;;2.07;;
5587;SDS011;2816;49.778;9.986;2022-07-03T04:58:55;6.57;;;1.87;;
5587;SDS011;2816;49.778;9.986;2022-07-03T05:01:22;2.30;;;2.10;;
5587;SDS011;2816;49.778;9.986;2022-07-03T05:03:49;2.20;;;2.00;;
5587;SDS011;2816;49.778;9.986;2022-07-03T05:06:16;2.93;;;2.00;;
5587;SDS011;2816;49.778;9.986;2022-07-03T05:08:43;2.97;;;2.10;;
5587;SDS011;2816;49.778;9.986;2022-07-03T05:11:10;3.20;;;2.03;;
5587;SDS011;2816;49.778;9.986;2022-07-03T05:13:37;3.87;;;1.77;;
5587;SDS011;2816;49.778;9.986;2022-07-03T05:16:05;2.20;;;2.00;;
5587;SDS011;2816;49.778;9.986;2022-07-03T05:18:33;2.30;;;2.10;;
5587;SDS011;2816;49.778;9.986;2022-07-03T05:21:00;3.43;;;2.10;;
5587;SDS011;2816;49.778;9.986;2022-07-03T05:23:27;2.30;;;2.13;;
5587;SDS011;2816;49.778;9.986;2022-07-03T05:25:54;3.00;;;1.90;;
5587;SDS011;2816;49.778;9.986;2022-07-03T05:28:23;4.03;;;2.20;;
5587;SDS011;2816;49.778;9.986;2022-07-03T05:30:50;2.40;;;1.93;;
5587;SDS011;2816;49.778;9.986;2022-07-03T05:33:19;2.50;;;2.30;;
5587;SDS011;2816;49.778;9.986;2022-07-03T05:35:46;5.43;;;2.00;;
5587;SDS011;2816;49.778;9.986;2022-07-03T05:38:13;4.70;;;2.17;;
5587;SDS011;2816;49.778;9.986;2022-07-03T05:41:00;7.00;;;2.43;;
5587;SDS011;2816;49.778;9.986;2022-07-03T05:43:25;9.40;;;2.23;;
5587;SDS011;2816;49.778;9.986;2022-07-03T05:45:52;2.90;;;1.80;;
5587;SDS011;2816;49.778;9.986;2022-07-03T05:48:21;2.83;;;2.33;;
5587;SDS011;2816;49.778;9.986;2022-07-03T05:50:48;6.80;;;2.00;;
5587;SDS011;2816;49.778;9.986;2022-07-03T05:53:15;5.80;;;1.90;;
5587;SDS011;2816;49.778;9.986;2022-07-03T05:55:42;2.20;;;2.00;;
5587;SDS011;2816;49.778;9.986;2022-07-03T05:58:08;11.17;;;1.80;;
5587;SDS011;2816;49.778;9.986;2022-07-03T06:00:35;2.03;;;1.83;;
5587;SDS011;2816;49.778;9.986;2022-07-03T06:03:02;2.80;;;2.00;;
5587;SDS011;2816;49.778;9.986;2022-07-03T06:05:31;2.37;;;2.20;;
5587;SDS011;2816;49.778;9.986;2022-07-03T06:07:58;2.70;;;2.20;;
5587;SDS011;2816;49.778;9.986;2022-07-03T06:10:26;2.77;;;1.97;;
5587;SDS011;2816;49.778;9.986;2022-07-03T06:12:54;1.87;;;1.77;;
5587;SDS011;2816;49.778;9.986;2022-07-03T06:15:21;1.90;;;1.80;;
5587;SDS011;2816;49.778;9.986;2022-07-03T06:17:48;3.10;;;2.23;;
5587;SDS011;2816;49.778;9.986;2022-07-03T06:20:15;4.43;;;2.07;;
5587;SDS011;2816;49.778;9.986;2022-07-03T06:22:43;4.20;;;1.90;;
5587;SDS011;2816;49.778;9.986;2022-07-03T06:25:10;2.13;;;1.87;;
5587;SDS011;2816;49.778;9.986;2022-07-03T06:27:38;2.37;;;2.00;;
5587;SDS011;2816;49.778;9.986;2022-07-03T06:30:05;2.00;;;1.87;;
5587;SDS011;2816;49.778;9.986;2022-07-03T06:32:33;2.50;;;1.73;;
5587;SDS011;2816;49.778;9.986;2022-07-03T06:35:00;1.90;;;1.70;;
5587;SDS011;2816;49.778;9.986;2022-07-03T06:37:27;1.93;;;1.80;;
5587;SDS011;2816;49.778;9.986;2022-07-03T06:39:55;3.53;;;2.10;;
5587;SDS011;2816;49.778;9.986;2022-07-03T06:42:22;1.73;;;1.63;;
5587;SDS011;2816;49.778;9.986;2022-07-03T06:44:49;1.83;;;1.73;;
5587;SDS011;2816;49.778;9.986;2022-07-03T06:47:17;2.00;;;1.80;;
5587;SDS011;2816;49.778;9.986;2022-07-03T06:49:44;1.70;;;1.60;;
5587;SDS011;2816;49.778;9.986;2022-07-03T06:52:10;10.83;;;1.70;;
5587;SDS011;2816;49.778;9.986;2022-07-03T06:54:37;3.00;;;1.77;;
5587;SDS011;2816;49.778;9.986;2022-07-03T06:57:10;1.80;;;1.70;;
5587;SDS011;2816;49.778;9.986;2022-07-03T06:59:37;1.70;;;1.60;;
5587;SDS011;2816;49.778;9.986;2022-07-03T07:02:04;1.80;;;1.70;;
5587;SDS011;2816;49.778;9.986;2022-07-03T07:04:31;8.20;;;2.00;;
5587;SDS011;2816;49.778;9.986;2022-07-03T07:06:58;1.63;;;1.53;;
5587;SDS011;2816;49.778;9.986;2022-07-03T07:09:25;1.73;;;1.63;;
5587;SDS011;2816;49.778;9.986;2022-07-03T07:11:52;4.33;;;1.60;;
5587;SDS011;2816;49.778;9.986;2022-07-03T07:14:21;6.70;;;1.70;;
5587;SDS011;2816;49.778;9.986;2022-07-03T07:16:48;2.27;;;1.60;;
5587;SDS011;2816;49.778;9.986;2022-07-03T07:19:15;3.77;;;1.80;;
5587;SDS011;2816;49.778;9.986;2022-07-03T07:21:42;2.10;;;1.90;;
5587;SDS011;2816;49.778;9.986;2022-07-03T07:24:09;3.13;;;1.70;;
5587;SDS011;2816;49.778;9.986;2022-07-03T07:26:36;2.53;;;1.70;;
5587;SDS011;2816;49.778;9.986;2022-07-03T07:29:03;1.80;;;1.67;;
5587;SDS011;2816;49.778;9.986;2022-07-03T07:31:32;2.90;;;1.60;;
5587;SDS011;2816;49.778;9.986;2022-07-03T07:33:59;1.70;;;1.60;;
5587;SDS011;2816;49.778;9.986;2022-07-03T07:36:29;1.90;;;1.80;;
5587;SDS011;2816;49.778;9.986;2022-07-03T07:38:56;7.43;;;1.90;;
5587;SDS011;2816;49.778;9.986;2022-07-03T07:41:23;1.70;;;1.43;;
5587;SDS011;2816;49.778;9.986;2022-07-03T07:43:50;2.00;;;1.80;;
5587;SDS011;2816;49.778;9.986;2022-07-03T07:46:17;1.80;;;1.70;;
5587;SDS011;2816;49.778;9.986;2022-07-03T07:48:45;5.20;;;1.47;;
5587;SDS011;2816;49.778;9.986;2022-07-03T07:51:12;1.60;;;1.50;;
5587;SDS011;2816;49.778;9.986;2022-07-03T07:53:39;3.57;;;1.60;;
5587;SDS011;2816;49.778;9.986;2022-07-03T07:56:06;2.13;;;1.60;;
5587;SDS011;2816;49.778;9.986;2022-07-03T07:58:33;2.10;;;1.40;;
5587;SDS011;2816;49.778;9.986;2022-07-03T08:01:00;5.83;;;1.50;;
5587;SDS011;2816;49.778;9.986;2022-07-03T08:03:44;1.80;;;1.70;;
5587;SDS011;2816;49.778;9.986;2022-07-03T08:06:29;3.03;;;1.70;;
5587;SDS011;2816;49.778;9.986;2022-07-03T08:08:56;1.60;;;1.50;;
5587;SDS011;2816;49.778;9.986;2022-07-03T08:11:23;2.03;;;1.50;;
5587;SDS011;2816;49.778;9.986;2022-07-03T08:13:50;1.63;;;1.53;;
5587;SDS011;2816;49.778;9.986;2022-07-03T08:16:16;2.40;;;1.50;;
5587;SDS011;2816;49.778;9.986;2022-07-03T08:18:45;2.80;;;1.57;;
5587;SDS011;2816;49.778;9.986;2022-07-03T08:21:12;2.43;;;1.80;;
5587;SDS011;2816;49.778;9.986;2022-07-03T08:23:39;2.90;;;1.80;;
5587;SDS011;2816;49.778;9.986;2022-07-03T08:26:06;1.57;;;1.43;;
5587;SDS011;2816;49.778;9.986;2022-07-03T08:28:33;4.67;;;1.57;;
5587;SDS011;2816;49.778;9.986;2022-07-03T08:31:00;2.13;;;1.60;;
5587;SDS011;2816;49.778;9.986;2022-07-03T08:33:26;1.43;;;1.30;;
5587;SDS011;2816;49.778;9.986;2022-07-03T08:35:55;1.73;;;1.63;;
5587;SDS011;2816;49.778;9.986;2022-07-03T08:38:23;1.90;;;1.60;;
5587;SDS011;2816;49.778;9.986;2022-07-03T08:40:56;2.40;;;1.60;;
5587;SDS011;2816;49.778;9.986;2022-07-03T08:43:24;1.70;;;1.53;;
5587;SDS011;2816;49.778;9.986;2022-07-03T08:45:51;1.73;;;1.50;;
5587;SDS011;2816;49.778;9.986;2022-07-03T08:48:20;1.40;;;1.33;;
5587;SDS011;2816;49.778;9.986;2022-07-03T08:50:48;1.40;;;1.30;;
5587;SDS011;2816;49.778;9.986;2022-07-03T08:53:18;1.60;;;1.50;;
5587;SDS011;2816;49.778;9.986;2022-07-03T08:55:47;1.93;;;1.30;;
5587;SDS011;2816;49.778;9.986;2022-07-03T08:58:15;3.63;;;1.53;;
5587;SDS011;2816;49.778;9.986;2022-07-03T09:00:44;1.27;;;1.17;;
5587;SDS011;2816;49.778;9.986;2022-07-03T09:03:12;2.20;;;1.27;;
5587;SDS011;2816;49.778;9.986;2022-07-03T09:05:41;1.57;;;1.40;;
5587;SDS011;2816;49.778;9.986;2022-07-03T09:08:08;1.40;;;1.30;;
5587;SDS011;2816;49.778;9.986;2022-07-03T09:10:37;1.67;;;1.47;;
5587;SDS011;2816;49.778;9.986;2022-07-03T09:13:04;1.90;;;1.30;;
5587;SDS011;2816;49.778;9.986;2022-07-03T09:15:31;1.77;;;1.50;;
5587;SDS011;2816;49.778;9.986;2022-07-03T09:17:59;1.63;;;1.53;;
5587;SDS011;2816;49.778;9.986;2022-07-03T09:20:27;3.03;;;1.50;;
5587;SDS011;2816;49.778;9.986;2022-07-03T09:23:08;2.90;;;1.40;;
5587;SDS011;2816;49.778;9.986;2022-07-03T09:25:50;2.90;;;1.27;;
5587;SDS011;2816;49.778;9.986;2022-07-03T09:28:19;1.57;;;1.47;;
5587;SDS011;2816;49.778;9.986;2022-07-03T09:30:56;1.87;;;1.30;;
5587;SDS011;2816;49.778;9.986;2022-07-03T09:33:24;2.60;;;1.40;;
5587;SDS011;2816;49.778;9.986;2022-07-03T09:35:52;2.13;;;1.50;;
5587;SDS011;2816;49.778;9.986;2022-07-03T09:38:20;2.10;;;1.47;;
5587;SDS011;2816;49.778;9.986;2022-07-03T09:40:48;3.33;;;1.20;;
5587;SDS011;2816;49.778;9.986;2022-07-03T09:43:21;1.30;;;1.20;;
5587;SDS011;2816;49.778;9.986;2022-07-03T09:45:51;2.30;;;1.30;;
5587;SDS011;2816;49.778;9.986;2022-07-03T09:48:20;6.13;;;1.73;;
5587;SDS011;2816;49.778;9.986;2022-07-03T09:51:07;3.00;;;1.30;;
5587;SDS011;2816;49.778;9.986;2022-07-03T09:56:27;1.33;;;1.03;;
5587;SDS011;2816;49.778;9.986;2022-07-03T09:59:06;1.33;;;1.13;;
5587;SDS011;2816;49.778;9.986;2022-07-03T10:01:35;1.33;;;1.00;;
5587;SDS011;2816;49.778;9.986;2022-07-03T10:04:13;1.30;;;1.20;;
5587;SDS011;2816;49.778;9.986;2022-07-03T10:06:48;1.67;;;1.10;;
5587;SDS011;2816;49.778;9.986;2022-07-03T10:09:21;1.07;;;1.07;;
5587;SDS011;2816;49.778;9.986;2022-07-03T10:11:50;1.23;;;1.10;;
5587;SDS011;2816;49.778;9.986;2022-07-03T10:14:18;1.53;;;1.17;;
5587;SDS011;2816;49.778;9.986;2022-07-03T10:16:47;2.20;;;1.20;;
5587;SDS011;2816;49.778;9.986;2022-07-03T10:19:15;2.53;;;1.40;;
5587;SDS011;2816;49.778;9.986;2022-07-03T10:21:47;1.20;;;1.10;;
5587;SDS011;2816;49.778;9.986;2022-07-03T10:24:17;2.00;;;1.10;;
5587;SDS011;2816;49.778;9.986;2022-07-03T10:26:44;2.60;;;1.40;;
5587;SDS011;2816;49.778;9.986;2022-07-03T10:29:14;3.37;;;1.10;;
5587;SDS011;2816;49.778;9.986;2022-07-03T10:31:45;1.27;;;1.00;;
5587;SDS011;2816;49.778;9.986;2022-07-03T10:34:16;1.10;;;1.00;;
5587;SDS011;2816;49.778;9.986;2022-07-03T10:36:45;1.63;;;1.00;;
5587;SDS011;2816;49.778;9.986;2022-07-03T10:39:18;2.13;;;1.17;;
5587;SDS011;2816;49.778;9.986;2022-07-03T10:41:53;1.80;;;1.20;;
5587;SDS011;2816;49.778;9.986;2022-07-03T10:45:02;1.00;;;1.00;;
5587;SDS011;2816;49.778;9.986;2022-07-03T10:47:38;1.03;;;0.93;;
5587;SDS011;2816;49.778;9.986;2022-07-03T10:50:07;1.27;;;1.17;;
5587;SDS011;2816;49.778;9.986;2022-07-03T10:52:36;1.17;;;1.07;;
5587;SDS011;2816;49.778;9.986;2022-07-03T10:55:03;2.10;;;1.00;;
5587;SDS011;2816;49.778;9.986;2022-07-03T10:57:32;1.00;;;1.00;;
5587;SDS011;2816;49.778;9.986;2022-07-03T11:02:49;2.50;;;1.07;;
5587;SDS011;2816;49.778;9.986;2022-07-03T11:05:21;2.30;;;1.37;;
5587;SDS011;2816;49.778;9.986;2022-07-03T11:08:05;1.20;;;1.10;;
5587;SDS011;2816;49.778;9.986;2022-07-03T11:10:37;2.83;;;1.30;;
5587;SDS011;2816;49.778;9.986;2022-07-03T11:13:09;1.17;;;1.07;;
5587;SDS011;2816;49.778;9.986;2022-07-03T11:15:49;1.83;;;1.03;;
5587;SDS011;2816;49.778;9.986;2022-07-03T11:18:24;1.47;;;1.30;;
5587;SDS011;2816;49.778;9.986;2022-07-03T11:24:17;1.03;;;0.93;;
5587;SDS011;2816;49.778;9.986;2022-07-03T11:29:56;0.93;;;0.80;;
5587;SDS011;2816;49.778;9.986;2022-07-03T11:38:21;1.47;;;1.00;;
5587;SDS011;2816;49.778;9.986;2022-07-03T11:40:50;2.43;;;1.00;;
5587;SDS011;2816;49.778;9.986;2022-07-03T11:43:18;1.10;;;1.00;;
5587;SDS011;2816;49.778;9.986;2022-07-03T11:45:46;1.43;;;1.07;;
5587;SDS011;2816;49.778;9.986;2022-07-03T11:48:16;1.97;;;1.00;;
5587;SDS011;2816;49.778;9.986;2022-07-03T11:50:45;1.50;;;1.40;;
5587;SDS011;2816;49.778;9.986;2022-07-03T11:53:16;1.50;;;1.10;;
5587;SDS011;2816;49.778;9.986;2022-07-03T11:55:47;1.17;;;1.00;;
5587;SDS011;2816;49.778;9.986;2022-07-03T11:58:15;4.27;;;0.90;;
5587;SDS011;2816;49.778;9.986;2022-07-03T12:00:42;1.37;;;1.10;;
5587;SDS011;2816;49.778;9.986;2022-07-03T12:03:13;0.90;;;0.90;;
5587;SDS011;2816;49.778;9.986;2022-07-03T12:05:53;0.93;;;0.90;;
5587;SDS011;2816;49.778;9.986;2022-07-03T12:08:25;0.97;;;0.90;;
5587;SDS011;2816;49.778;9.986;2022-07-03T12:10:57;1.77;;;1.00;;
5587;SDS011;2816;49.778;9.986;2022-07-03T12:13:25;1.27;;;1.00;;
5587;SDS011;2816;49.778;9.986;2022-07-03T12:16:00;2.00;;;1.10;;
5587;SDS011;2816;49.778;9.986;2022-07-03T12:18:34;1.10;;;1.00;;
5587;SDS011;2816;49.778;9.986;2022-07-03T12:21:07;0.97;;;0.90;;
5587;SDS011;2816;49.778;9.986;2022-07-03T12:23:39;0.80;;;0.80;;
5587;SDS011;2816;49.778;9.986;2022-07-03T12:26:07;1.00;;;0.90;;
5587;SDS011;2816;49.778;9.986;2022-07-03T12:28:34;1.73;;;0.90;;
5587;SDS011;2816;49.778;9.986;2022-07-03T12:31:02;1.70;;;0.80;;
5587;SDS011;2816;49.778;9.986;2022-07-03T12:33:29;0.83;;;0.80;;
5587;SDS011;2816;49.778;9.986;2022-07-03T12:36:05;1.77;;;1.00;;
5587;SDS011;2816;49.778;9.986;2022-07-03T12:38:35;1.40;;;0.90;;
5587;SDS011;2816;49.778;9.986;2022-07-03T12:41:03;1.43;;;0.90;;
5587;SDS011;2816;49.778;9.986;2022-07-03T12:43:38;1.40;;;1.00;;
5587;SDS011;2816;49.778;9.986;2022-07-03T12:46:15;1.00;;;0.90;;
5587;SDS011;2816;49.778;9.986;2022-07-03T12:48:46;1.30;;;0.90;;
5587;SDS011;2816;49.778;9.986;2022-07-03T12:51:16;1.13;;;0.80;;
5587;SDS011;2816;49.778;9.986;2022-07-03T12:54:02;1.90;;;0.90;;
5587;SDS011;2816;49.778;9.986;2022-07-03T12:56:29;5.60;;;1.10;;
5587;SDS011;2816;49.778;9.986;2022-07-03T12:58:56;0.80;;;0.80;;
5587;SDS011;2816;49.778;9.986;2022-07-03T13:01:40;1.00;;;0.83;;
5587;SDS011;2816;49.778;9.986;2022-07-03T13:04:07;0.80;;;0.80;;
5587;SDS011;2816;49.778;9.986;2022-07-03T13:06:40;1.10;;;1.00;;
5587;SDS011;2816;49.778;9.986;2022-07-03T13:09:10;1.77;;;0.90;;
5587;SDS011;2816;49.778;9.986;2022-07-03T13:11:38;6.27;;;1.00;;
5587;SDS011;2816;49.778;9.986;2022-07-03T13:14:07;1.43;;;1.00;;
5587;SDS011;2816;49.778;9.986;2022-07-03T13:16:36;1.80;;;1.00;;
5587;SDS011;2816;49.778;9.986;2022-07-03T13:19:05;1.00;;;0.90;;
5587;SDS011;2816;49.778;9.986;2022-07-03T13:21:32;0.80;;;0.80;;
5587;SDS011;2816;49.778;9.986;2022-07-03T13:24:01;0.90;;;0.90;;
5587;SDS011;2816;49.778;9.986;2022-07-03T13:26:28;0.80;;;0.80;;
5587;SDS011;2816;49.778;9.986;2022-07-03T13:28:56;2.03;;;0.70;;
5587;SDS011;2816;49.778;9.986;2022-07-03T13:31:23;1.17;;;1.07;;
5587;SDS011;2816;49.778;9.986;2022-07-03T13:33:50;9.60;;;0.80;;
5587;SDS011;2816;49.778;9.986;2022-07-03T13:36:17;2.30;;;1.10;;
5587;SDS011;2816;49.778;9.986;2022-07-03T13:38:44;3.23;;;0.80;;
5587;SDS011;2816;49.778;9.986;2022-07-03T13:41:13;1.30;;;1.00;;
5587;SDS011;2816;49.778;9.986;2022-07-03T13:43:40;1.20;;;1.00;;
5587;SDS011;2816;49.778;9.986;2022-07-03T13:46:07;1.03;;;0.90;;
5587;SDS011;2816;49.778;9.986;2022-07-03T13:48:34;1.13;;;0.80;;
5587;SDS011;2816;49.778;9.986;2022-07-03T13:51:01;0.70;;;0.70;;
5587;SDS011;2816;49.778;9.986;2022-07-03T13:53:27;2.03;;;0.80;;
5587;SDS011;2816;49.778;9.986;2022-07-03T13:55:55;0.80;;;0.80;;
5587;SDS011;2816;49.778;9.986;2022-07-03T13:58:25;0.77;;;0.77;;
5587;SDS011;2816;49.778;9.986;2022-07-03T14:00:53;1.00;;;0.80;;
5587;SDS011;2816;49.778;9.986;2022-07-03T14:03:20;1.37;;;1.00;;
5587;SDS011;2816;49.778;9.986;2022-07-03T14:05:48;2.50;;;0.73;;
5587;SDS011;2816;49.778;9.986;2022-07-03T14:08:16;2.87;;;0.90;;
5587;SDS011;2816;49.778;9.986;2022-07-03T14:10:43;2.57;;;1.00;;
5587;SDS011;2816;49.778;9.986;2022-07-03T14:13:10;0.80;;;0.80;;
5587;SDS011;2816;49.778;9.986;2022-07-03T14:15:39;1.97;;;0.80;;
5587;SDS011;2816;49.778;9.986;2022-07-03T14:18:06;0.80;;;0.80;;
5587;SDS011;2816;49.778;9.986;2022-07-03T14:20:33;0.83;;;0.80;;
5587;SDS011;2816;49.778;9.986;2022-07-03T14:23:00;1.83;;;1.03;;
5587;SDS011;2816;49.778;9.986;2022-07-03T14:25:26;1.37;;;1.00;;
5587;SDS011;2816;49.778;9.986;2022-07-03T14:27:53;2.50;;;0.90;;
5587;SDS011;2816;49.778;9.986;2022-07-03T14:30:39;1.80;;;0.70;;
5587;SDS011;2816;49.778;9.986;2022-07-03T14:33:23;6.03;;;0.87;;
5587;SDS011;2816;49.778;9.986;2022-07-03T14:35:51;0.97;;;0.90;;
5587;SDS011;2816;49.778;9.986;2022-07-03T14:38:19;2.70;;;0.87;;
5587;SDS011;2816;49.778;9.986;2022-07-03T14:40:46;6.23;;;0.80;;
5587;SDS011;2816;49.778;9.986;2022-07-03T14:43:13;1.50;;;0.90;;
5587;SDS011;2816;49.778;9.986;2022-07-03T14:45:41;1.20;;;1.10;;
5587;SDS011;2816;49.778;9.986;2022-07-03T14:48:08;1.47;;;1.10;;
5587;SDS011;2816;49.778;9.986;2022-07-03T14:50:35;1.90;;;0.80;;
5587;SDS011;2816;49.778;9.986;2022-07-03T14:53:03;0.80;;;0.80;;
5587;SDS011;2816;49.778;9.986;2022-07-03T14:55:35;2.10;;;0.80;;
5587;SDS011;2816;49.778;9.986;2022-07-03T14:58:04;1.00;;;0.90;;
5587;SDS011;2816;49.778;9.986;2022-07-03T15:00:35;2.60;;;0.87;;
5587;SDS011;2816;49.778;9.986;2022-07-03T15:03:10;0.97;;;0.97;;
5587;SDS011;2816;49.778;9.986;2022-07-03T15:05:42;1.50;;;1.00;;
5587;SDS011;2816;49.778;9.986;2022-07-03T15:08:13;1.97;;;0.80;;
5587;SDS011;2816;49.778;9.986;2022-07-03T15:10:52;1.37;;;1.00;;
5587;SDS011;2816;49.778;9.986;2022-07-03T15:13:20;1.17;;;1.00;;
5587;SDS011;2816;49.778;9.986;2022-07-03T15:15:48;5.73;;;1.13;;
5587;SDS011;2816;49.778;9.986;2022-07-03T15:18:17;1.00;;;0.90;;
5587;SDS011;2816;49.778;9.986;2022-07-03T15:20:45;1.00;;;0.90;;
5587;SDS011;2816;49.778;9.986;2022-07-03T15:23:13;2.00;;;1.00;;
5587;SDS011;2816;49.778;9.986;2022-07-03T15:25:44;1.03;;;1.03;;
5587;SDS011;2816;49.778;9.986;2022-07-03T15:28:14;3.70;;;1.20;;
5587;SDS011;2816;49.778;9.986;2022-07-03T15:30:45;0.93;;;0.90;;
5587;SDS011;2816;49.778;9.986;2022-07-03T15:33:14;2.77;;;1.10;;
5587;SDS011;2816;49.778;9.986;2022-07-03T15:35:44;4.57;;;1.10;;
5587;SDS011;2816;49.778;9.986;2022-07-03T15:38:17;2.73;;;1.57;;
5587;SDS011;2816;49.778;9.986;2022-07-03T15:40:51;1.80;;;1.50;;
5587;SDS011;2816;49.778;9.986;2022-07-03T15:43:24;1.43;;;1.27;;
5587;SDS011;2816;49.778;9.986;2022-07-03T15:46:05;8.43;;;1.37;;
5587;SDS011;2816;49.778;9.986;2022-07-03T15:48:41;5.60;;;1.73;;
5587;SDS011;2816;49.778;9.986;2022-07-03T15:51:17;1.97;;;1.40;;